Time;durP1;ratioP1;P1;durP2;ratioP2;P2;SDS_P1;SDS_P2;PMS_P1;PMS_P2;Temp;Humidity;BMP_temperature;BMP_pressure;BME280_temperature;BME280_humidity;BME280_pressure;Samples;Min_cycle;Max_cycle;Signal;HPM_P1;HPM_P2
2022/08/25 00:01:19;;;;;;;3.70;3.40;;;;;;;;;;5005422;28;20434;-53
2022/08/25 00:03:45;;;;;;;3.37;3.07;;;;;;;;;;5000482;28;20431;-53
2022/08/25 00:06:11;;;;;;;4.00;3.27;;;;;;;;;;5024484;28;20443;-53
2022/08/25 00:08:37;;;;;;;3.27;2.90;;;;;;;;;;5021897;28;21213;-53
2022/08/25 00:11:06;;;;;;;3.33;3.03;;;;;;;;;;5018377;28;20546;-53
2022/08/25 00:13:32;;;;;;;3.77;3.30;;;;;;;;;;5003769;28;20447;-51
2022/08/25 00:15:58;;;;;;;3.27;2.97;;;;;;;;;;5020373;28;20474;-52
2022/08/25 00:18:25;;;;;;;2.90;2.60;;;;;;;;;;5004749;28;20436;-53
2022/08/25 00:20:50;;;;;;;4.50;3.30;;;;;;;;;;5023340;28;20514;-52
2022/08/25 00:23:17;;;;;;;6.00;3.60;;;;;;;;;;5021891;28;20543;-52
2022/08/25 00:25:43;;;;;;;3.67;3.30;;;;;;;;;;5028413;28;20463;-52
2022/08/25 00:28:09;;;;;;;3.27;2.97;;;;;;;;;;4982206;28;20621;-53
2022/08/25 00:30:35;;;;;;;4.30;3.53;;;;;;;;;;5010848;28;20313;-54
2022/08/25 00:33:02;;;;;;;4.07;3.27;;;;;;;;;;4984556;28;20439;-53
2022/08/25 00:35:28;;;;;;;3.40;3.10;;;;;;;;;;5005607;28;20455;-53
2022/08/25 00:37:54;;;;;;;3.40;3.00;;;;;;;;;;5019835;28;20439;-53
2022/08/25 00:40:20;;;;;;;4.03;3.63;;;;;;;;;;5022839;28;20181;-53
2022/08/25 00:42:46;;;;;;;3.70;2.93;;;;;;;;;;5025205;28;21127;-54
2022/08/25 00:45:12;;;;;;;4.20;3.00;;;;;;;;;;5020711;28;20432;-52
2022/08/25 00:47:40;;;;;;;3.53;3.17;;;;;;;;;;5027309;28;21256;-53
2022/08/25 00:50:07;;;;;;;4.87;3.40;;;;;;;;;;5025638;28;20223;-52
2022/08/25 00:52:53;;;;;;;5.30;3.40;;;;;;;;;;5010364;28;20985;-53
2022/08/25 00:55:20;;;;;;;4.60;3.17;;;;;;;;;;5019072;28;20533;-52
2022/08/25 00:57:48;;;;;;;4.53;2.93;;;;;;;;;;4992417;28;21366;-53
2022/08/25 01:00:18;;;;;;;4.50;2.97;;;;;;;;;;5005102;28;20439;-52
2022/08/25 01:02:44;;;;;;;3.33;3.00;;;;;;;;;;5017082;28;20475;-53
2022/08/25 01:05:11;;;;;;;3.00;2.70;;;;;;;;;;5019427;28;20442;-53
2022/08/25 01:07:37;;;;;;;3.67;2.90;;;;;;;;;;5025501;28;20545;-53
2022/08/25 01:10:03;;;;;;;4.10;2.90;;;;;;;;;;5022500;28;20585;-52
2022/08/25 01:12:29;;;;;;;3.03;2.77;;;;;;;;;;5016668;28;20187;-52
2022/08/25 01:14:55;;;;;;;3.53;2.83;;;;;;;;;;5008101;28;20444;-51
2022/08/25 01:17:21;;;;;;;3.20;2.83;;;;;;;;;;5025612;28;20175;-52
2022/08/25 01:19:47;;;;;;;4.37;3.80;;;;;;;;;;5018816;28;20204;-53
2022/08/25 01:22:13;;;;;;;3.30;3.00;;;;;;;;;;5029513;28;20369;-52
2022/08/25 01:24:44;;;;;;;4.40;3.53;;;;;;;;;;5019296;28;20659;-53
2022/08/25 01:27:10;;;;;;;5.13;3.40;;;;;;;;;;5031666;28;20180;-53
2022/08/25 01:29:37;;;;;;;9.70;3.50;;;;;;;;;;5004463;28;20519;-52
2022/08/25 01:32:05;;;;;;;3.50;2.63;;;;;;;;;;5028035;28;20510;-52
2022/08/25 01:34:31;;;;;;;3.60;3.30;;;;;;;;;;4982119;28;20455;-53
2022/08/25 01:36:57;;;;;;;3.93;3.47;;;;;;;;;;5008992;28;20431;-54
2022/08/25 01:39:24;;;;;;;4.07;3.67;;;;;;;;;;5017230;28;20950;-52
2022/08/25 01:42:05;;;;;;;3.40;3.10;;;;;;;;;;5029465;28;20449;-53
2022/08/25 01:44:31;;;;;;;5.17;4.00;;;;;;;;;;5025944;28;20949;-53
2022/08/25 01:46:57;;;;;;;3.83;3.40;;;;;;;;;;5023079;28;20540;-53
2022/08/25 01:49:23;;;;;;;3.53;2.97;;;;;;;;;;5014849;28;20922;-53
2022/08/25 01:52:05;;;;;;;2.63;2.43;;;;;;;;;;5014702;28;20947;-53
2022/08/25 01:54:31;;;;;;;3.50;3.20;;;;;;;;;;5017137;28;20192;-53
2022/08/25 01:56:57;;;;;;;5.13;2.97;;;;;;;;;;5023133;28;20435;-53
2022/08/25 01:59:23;;;;;;;3.80;3.50;;;;;;;;;;5002689;28;20447;-53
2022/08/25 02:01:49;;;;;;;3.90;3.47;;;;;;;;;;5030774;28;20455;-52
2022/08/25 02:04:15;;;;;;;4.23;3.67;;;;;;;;;;5016614;28;20431;-53
2022/08/25 02:06:41;;;;;;;4.60;4.13;;;;;;;;;;5028631;28;20188;-52
2022/08/25 02:09:08;;;;;;;5.90;4.23;;;;;;;;;;4983558;28;20232;-53
2022/08/25 02:11:35;;;;;;;3.50;3.20;;;;;;;;;;5015375;28;21163;-53
2022/08/25 02:14:01;;;;;;;4.93;3.47;;;;;;;;;;5020777;28;20439;-54
2022/08/25 02:16:28;;;;;;;3.87;3.47;;;;;;;;;;5011400;28;20463;-54
2022/08/25 02:18:54;;;;;;;5.23;3.93;;;;;;;;;;5004838;28;20178;-53
2022/08/25 02:21:20;;;;;;;3.90;3.50;;;;;;;;;;5017847;28;20440;-53
2022/08/25 02:23:46;;;;;;;5.77;3.53;;;;;;;;;;5023366;28;20952;-52
2022/08/25 02:26:15;;;;;;;4.83;3.67;;;;;;;;;;5013230;28;20930;-53
2022/08/25 02:28:41;;;;;;;4.17;3.53;;;;;;;;;;5017428;28;20496;-52
2022/08/25 02:31:07;;;;;;;3.73;3.13;;;;;;;;;;5014832;28;20849;-52
2022/08/25 02:33:33;;;;;;;4.03;3.63;;;;;;;;;;5007736;28;20435;-52
2022/08/25 02:35:59;;;;;;;5.67;4.10;;;;;;;;;;5009893;28;20180;-53
2022/08/25 02:38:26;;;;;;;5.30;3.90;;;;;;;;;;5016291;28;20482;-52
2022/08/25 02:40:52;;;;;;;3.90;3.50;;;;;;;;;;5026147;28;20443;-53
2022/08/25 02:43:18;;;;;;;3.80;3.40;;;;;;;;;;4983526;28;20512;-53
2022/08/25 02:45:44;;;;;;;3.70;2.80;;;;;;;;;;5024626;28;20196;-53
2022/08/25 02:48:10;;;;;;;6.90;3.80;;;;;;;;;;5002326;28;20234;-53
2022/08/25 02:50:36;;;;;;;4.80;3.63;;;;;;;;;;5029369;28;20303;-53
2022/08/25 02:53:02;;;;;;;3.97;3.47;;;;;;;;;;5024527;28;20443;-53
2022/08/25 02:55:28;;;;;;;5.30;4.40;;;;;;;;;;5021598;28;20266;-52
2022/08/25 02:57:54;;;;;;;4.07;3.73;;;;;;;;;;5006008;28;20523;-53
2022/08/25 03:00:20;;;;;;;5.70;3.23;;;;;;;;;;5027759;28;20184;-53
2022/08/25 03:02:46;;;;;;;5.20;3.70;;;;;;;;;;5012642;28;20455;-53
2022/08/25 03:05:12;;;;;;;6.97;3.73;;;;;;;;;;5015855;28;20450;-53
2022/08/25 03:07:38;;;;;;;4.43;3.77;;;;;;;;;;4994160;28;20436;-53
2022/08/25 03:10:05;;;;;;;4.93;4.17;;;;;;;;;;5027203;28;20475;-52
2022/08/25 03:12:32;;;;;;;6.53;4.73;;;;;;;;;;5008412;28;20439;-53
2022/08/25 03:14:57;;;;;;;4.33;3.67;;;;;;;;;;4998555;28;20439;-52
2022/08/25 03:17:23;;;;;;;4.47;4.07;;;;;;;;;;5024722;28;20435;-53
2022/08/25 03:19:49;;;;;;;5.43;4.17;;;;;;;;;;5010500;28;20451;-52
2022/08/25 03:22:15;;;;;;;4.10;3.70;;;;;;;;;;5028069;28;20423;-52
2022/08/25 03:24:41;;;;;;;4.33;3.93;;;;;;;;;;5007543;28;20187;-52
2022/08/25 03:27:07;;;;;;;4.60;4.10;;;;;;;;;;5029184;28;20177;-53
2022/08/25 03:29:33;;;;;;;5.23;4.10;;;;;;;;;;5018820;28;20483;-53
2022/08/25 03:31:59;;;;;;;4.97;4.47;;;;;;;;;;5029416;28;20831;-52
2022/08/25 03:34:26;;;;;;;3.97;3.57;;;;;;;;;;5003720;28;20446;-53
2022/08/25 03:36:52;;;;;;;4.60;3.93;;;;;;;;;;5024998;28;20431;-52
2022/08/25 03:39:19;;;;;;;4.20;3.80;;;;;;;;;;5003065;28;20443;-53
2022/08/25 03:41:46;;;;;;;4.90;4.40;;;;;;;;;;5024093;28;20479;-53
2022/08/25 03:44:12;;;;;;;4.73;3.90;;;;;;;;;;5020924;28;20431;-53
2022/08/25 03:46:39;;;;;;;4.90;4.40;;;;;;;;;;5021749;28;20566;-52
2022/08/25 03:49:05;;;;;;;4.60;3.87;;;;;;;;;;4982496;28;20478;-53
2022/08/25 03:51:33;;;;;;;5.40;4.50;;;;;;;;;;5020435;28;21029;-52
2022/08/25 03:54:00;;;;;;;5.50;4.90;;;;;;;;;;5020846;28;20842;-52
2022/08/25 03:56:26;;;;;;;4.43;4.00;;;;;;;;;;5027140;28;20455;-52
2022/08/25 03:58:52;;;;;;;7.97;5.10;;;;;;;;;;5003894;28;20496;-53
2022/08/25 04:01:18;;;;;;;5.00;4.20;;;;;;;;;;5022568;28;20449;-52
2022/08/25 04:03:44;;;;;;;5.33;4.00;;;;;;;;;;5003366;28;20451;-52
2022/08/25 04:06:10;;;;;;;5.50;4.40;;;;;;;;;;5023079;28;20419;-53
2022/08/25 04:08:36;;;;;;;5.83;4.90;;;;;;;;;;5021324;28;20949;-53
2022/08/25 04:11:06;;;;;;;6.53;4.53;;;;;;;;;;5027035;28;20437;-53
2022/08/25 04:13:33;;;;;;;5.60;5.07;;;;;;;;;;4999423;28;20438;-51
2022/08/25 04:15:58;;;;;;;8.60;4.57;;;;;;;;;;5023731;28;20470;-54
2022/08/25 04:18:24;;;;;;;4.10;3.60;;;;;;;;;;4982568;28;20577;-52
2022/08/25 04:20:50;;;;;;;4.20;3.80;;;;;;;;;;5017778;28;20181;-53
2022/08/25 04:23:16;;;;;;;8.67;5.80;;;;;;;;;;5017511;28;20474;-52
2022/08/25 04:25:42;;;;;;;6.00;4.17;;;;;;;;;;5029267;28;20477;-53
2022/08/25 04:28:09;;;;;;;8.00;4.93;;;;;;;;;;5023816;28;20423;-55
2022/08/25 04:30:35;;;;;;;8.33;4.57;;;;;;;;;;5028475;28;20498;-53
2022/08/25 04:33:01;;;;;;;5.80;4.03;;;;;;;;;;5027385;28;20613;-54
2022/08/25 04:35:27;;;;;;;6.50;4.90;;;;;;;;;;5022999;28;20973;-54
2022/08/25 04:37:52;;;;;;;4.90;4.40;;;;;;;;;;5010899;28;21282;-53
2022/08/25 04:40:19;;;;;;;8.30;4.97;;;;;;;;;;5018701;28;20188;-53
2022/08/25 04:42:45;;;;;;;6.30;4.80;;;;;;;;;;5022349;28;20288;-54
2022/08/25 04:45:11;;;;;;;4.70;4.30;;;;;;;;;;5007237;28;20466;-54
2022/08/25 04:47:37;;;;;;;7.70;4.90;;;;;;;;;;5001007;28;20443;-54
2022/08/25 04:50:04;;;;;;;7.73;5.23;;;;;;;;;;5002236;28;20216;-53
2022/08/25 04:52:30;;;;;;;8.40;5.07;;;;;;;;;;5018708;28;20808;-54
2022/08/25 04:54:56;;;;;;;6.80;4.67;;;;;;;;;;5006923;28;20442;-54
2022/08/25 04:57:22;;;;;;;6.60;5.03;;;;;;;;;;5021078;28;20183;-54
2022/08/25 04:59:48;;;;;;;6.50;5.00;;;;;;;;;;5004666;28;20283;-53
2022/08/25 05:02:14;;;;;;;7.23;5.10;;;;;;;;;;5024960;28;20185;-54
2022/08/25 05:04:40;;;;;;;8.30;4.80;;;;;;;;;;5023917;28;20481;-53
2022/08/25 05:07:06;;;;;;;7.23;5.90;;;;;;;;;;5014883;28;20461;-54
2022/08/25 05:09:32;;;;;;;9.07;4.90;;;;;;;;;;5027112;28;20985;-53
2022/08/25 05:11:58;;;;;;;5.47;4.97;;;;;;;;;;5028714;28;20170;-54
2022/08/25 05:14:24;;;;;;;5.13;4.50;;;;;;;;;;5005994;28;21001;-53
2022/08/25 05:16:50;;;;;;;10.47;5.13;;;;;;;;;;5026217;28;21108;-53
2022/08/25 05:19:16;;;;;;;5.40;4.13;;;;;;;;;;5006415;28;20512;-54
2022/08/25 05:21:42;;;;;;;7.20;5.87;;;;;;;;;;5031139;28;20466;-52
2022/08/25 05:24:08;;;;;;;6.20;4.67;;;;;;;;;;4967985;28;21311;-52
2022/08/25 05:26:35;;;;;;;6.83;5.20;;;;;;;;;;5022151;28;20447;-53
2022/08/25 05:29:03;;;;;;;6.03;5.43;;;;;;;;;;5019529;28;20894;-54
2022/08/25 05:31:29;;;;;;;6.73;4.93;;;;;;;;;;5023242;28;20465;-53
2022/08/25 05:33:55;;;;;;;4.57;4.07;;;;;;;;;;5025651;28;20799;-54
2022/08/25 05:36:21;;;;;;;5.80;4.60;;;;;;;;;;5029313;28;20511;-53
2022/08/25 05:38:47;;;;;;;5.33;4.80;;;;;;;;;;4988114;28;20521;-53
2022/08/25 05:41:15;;;;;;;5.60;5.10;;;;;;;;;;5026557;28;20432;-53
2022/08/25 05:43:41;;;;;;;6.63;5.80;;;;;;;;;;5023467;28;20428;-54
2022/08/25 05:46:07;;;;;;;5.30;4.20;;;;;;;;;;5004644;28;20462;-53
2022/08/25 05:48:33;;;;;;;6.37;4.80;;;;;;;;;;5004375;28;20440;-54
2022/08/25 05:51:01;;;;;;;6.80;5.10;;;;;;;;;;5010700;28;20474;-54
2022/08/25 05:53:27;;;;;;;5.83;4.70;;;;;;;;;;5024577;28;20181;-54
2022/08/25 05:55:53;;;;;;;5.60;5.03;;;;;;;;;;5023639;28;20946;-53
2022/08/25 05:58:19;;;;;;;6.20;5.20;;;;;;;;;;4983306;28;20600;-54
2022/08/25 06:00:45;;;;;;;6.13;5.10;;;;;;;;;;5025345;28;20434;-54
2022/08/25 06:03:11;;;;;;;7.00;4.93;;;;;;;;;;5019997;28;20435;-54
2022/08/25 06:05:37;;;;;;;5.30;4.67;;;;;;;;;;5029317;28;20436;-53
2022/08/25 06:08:03;;;;;;;6.70;5.23;;;;;;;;;;5007915;28;20449;-53
2022/08/25 06:10:29;;;;;;;9.10;5.80;;;;;;;;;;5011392;28;20501;-53
2022/08/25 06:12:55;;;;;;;5.57;5.00;;;;;;;;;;5020939;28;20428;-54
2022/08/25 06:15:22;;;;;;;7.43;5.23;;;;;;;;;;5027585;28;20188;-53
2022/08/25 06:17:48;;;;;;;10.50;5.10;;;;;;;;;;5008912;28;20431;-53
2022/08/25 06:20:15;;;;;;;5.97;5.20;;;;;;;;;;5020417;28;20447;-52
2022/08/25 06:22:41;;;;;;;8.07;5.57;;;;;;;;;;5019819;28;20436;-54
2022/08/25 06:25:08;;;;;;;6.00;5.43;;;;;;;;;;5022459;28;20485;-54
2022/08/25 06:27:34;;;;;;;5.77;5.20;;;;;;;;;;5024312;28;20467;-54
2022/08/25 06:30:03;;;;;;;6.83;5.73;;;;;;;;;;5015575;28;20486;-53
2022/08/25 06:32:34;;;;;;;6.47;5.77;;;;;;;;;;5006129;28;20562;-57
2022/08/25 06:35:00;;;;;;;6.63;5.43;;;;;;;;;;4995246;28;20502;-53
2022/08/25 06:37:26;;;;;;;7.87;5.93;;;;;;;;;;5015221;28;20440;-54
2022/08/25 06:39:52;;;;;;;6.90;6.07;;;;;;;;;;5009529;28;20372;-54
2022/08/25 06:42:18;;;;;;;6.57;5.80;;;;;;;;;;5026048;28;20444;-58
2022/08/25 06:44:44;;;;;;;7.90;6.27;;;;;;;;;;5016821;28;20504;-52
2022/08/25 06:47:10;;;;;;;7.40;6.40;;;;;;;;;;5024494;28;20451;-53
2022/08/25 06:49:36;;;;;;;7.60;6.77;;;;;;;;;;5021524;28;20830;-54
2022/08/25 06:52:02;;;;;;;9.60;6.03;;;;;;;;;;5029061;28;20478;-53
2022/08/25 06:54:28;;;;;;;7.10;6.00;;;;;;;;;;5007301;28;20442;-54
2022/08/25 06:56:54;;;;;;;8.00;6.10;;;;;;;;;;5030229;28;20886;-54
2022/08/25 06:59:20;;;;;;;7.80;7.00;;;;;;;;;;5001713;28;20200;-54
2022/08/25 07:01:46;;;;;;;6.50;5.80;;;;;;;;;;5024800;28;20651;-54
2022/08/25 07:04:12;;;;;;;8.33;6.53;;;;;;;;;;5018704;28;20435;-53
2022/08/25 07:06:38;;;;;;;7.77;6.43;;;;;;;;;;5012408;28;20484;-53
2022/08/25 07:09:04;;;;;;;10.10;6.77;;;;;;;;;;4980076;28;20479;-53
2022/08/25 07:11:33;;;;;;;8.20;6.27;;;;;;;;;;5018346;28;20494;-54
2022/08/25 07:13:59;;;;;;;7.43;6.63;;;;;;;;;;5012666;28;20428;-54
2022/08/25 07:16:25;;;;;;;6.53;5.93;;;;;;;;;;5001976;28;20467;-53
2022/08/25 07:18:55;;;;;;;7.03;6.33;;;;;;;;;;5002086;28;21030;-54
2022/08/25 07:21:21;;;;;;;8.10;6.80;;;;;;;;;;5028536;28;20199;-54
2022/08/25 07:23:47;;;;;;;9.80;7.00;;;;;;;;;;5007903;28;20457;-54
2022/08/25 07:26:14;;;;;;;7.00;6.30;;;;;;;;;;5027733;28;20526;-54
2022/08/25 07:28:40;;;;;;;8.50;7.70;;;;;;;;;;4986821;28;20279;-53
2022/08/25 07:31:06;;;;;;;9.23;6.00;;;;;;;;;;5023548;28;20442;-54
2022/08/25 07:33:32;;;;;;;11.97;8.10;;;;;;;;;;5023199;28;20458;-53
2022/08/25 07:35:58;;;;;;;8.50;6.43;;;;;;;;;;5028609;28;20489;-53
2022/08/25 07:38:24;;;;;;;9.23;6.93;;;;;;;;;;5002351;28;20444;-54
2022/08/25 07:40:54;;;;;;;8.43;7.10;;;;;;;;;;5025606;28;20451;-54
2022/08/25 07:43:20;;;;;;;8.47;6.00;;;;;;;;;;4982636;28;20216;-53
2022/08/25 07:45:46;;;;;;;7.70;6.70;;;;;;;;;;5019931;28;20455;-54
2022/08/25 07:48:12;;;;;;;7.63;5.97;;;;;;;;;;4970519;28;20597;-53
2022/08/25 07:50:40;;;;;;;8.60;7.37;;;;;;;;;;5027343;28;20481;-54
2022/08/25 07:53:06;;;;;;;8.13;6.60;;;;;;;;;;5005193;28;20442;-53
2022/08/25 07:55:35;;;;;;;8.20;6.90;;;;;;;;;;5027518;28;20447;-54
2022/08/25 07:58:01;;;;;;;7.97;6.37;;;;;;;;;;5021835;28;20530;-54
2022/08/25 08:00:28;;;;;;;6.73;6.10;;;;;;;;;;5005749;28;20523;-54
2022/08/25 08:02:55;;;;;;;6.80;6.10;;;;;;;;;;5015240;28;20162;-53
2022/08/25 08:05:20;;;;;;;7.80;6.70;;;;;;;;;;5008282;28;20446;-54
2022/08/25 08:07:46;;;;;;;6.83;6.03;;;;;;;;;;5011932;28;20432;-54
2022/08/25 08:10:13;;;;;;;7.30;5.77;;;;;;;;;;5014234;28;20482;-53
2022/08/25 08:12:39;;;;;;;7.53;6.17;;;;;;;;;;5005602;28;20185;-53
2022/08/25 08:15:05;;;;;;;7.97;6.33;;;;;;;;;;5005607;28;20965;-54
2022/08/25 08:17:31;;;;;;;7.73;6.30;;;;;;;;;;5015594;28;20476;-54
2022/08/25 08:19:58;;;;;;;7.53;6.37;;;;;;;;;;5007466;28;20474;-53
2022/08/25 08:22:24;;;;;;;9.00;6.63;;;;;;;;;;5016697;28;20478;-54
2022/08/25 08:24:50;;;;;;;7.30;6.17;;;;;;;;;;5014552;28;20479;-53
2022/08/25 08:27:16;;;;;;;6.50;5.90;;;;;;;;;;5026353;28;20183;-54
2022/08/25 08:29:42;;;;;;;7.70;6.30;;;;;;;;;;4993660;28;20476;-53
2022/08/25 08:32:09;;;;;;;6.57;5.80;;;;;;;;;;5027453;28;20435;-55
2022/08/25 08:34:35;;;;;;;7.07;5.37;;;;;;;;;;5014263;28;20448;-54
2022/08/25 08:37:01;;;;;;;7.77;6.00;;;;;;;;;;5023697;28;20436;-53
2022/08/25 08:39:28;;;;;;;6.70;6.00;;;;;;;;;;4996285;28;20594;-54
2022/08/25 08:42:18;;;;;;;6.37;5.77;;;;;;;;;;5025226;28;20473;-53
2022/08/25 08:44:43;;;;;;;8.13;6.27;;;;;;;;;;5009827;28;20443;-53
2022/08/25 08:47:16;;;;;;;6.63;5.30;;;;;;;;;;5019897;28;20871;-54
2022/08/25 08:50:00;;;;;;;7.20;5.20;;;;;;;;;;4985257;28;20216;-54
2022/08/25 08:52:34;;;;;;;7.80;5.27;;;;;;;;;;5019302;28;20543;-54
2022/08/25 08:55:01;;;;;;;6.40;5.73;;;;;;;;;;4996422;28;20431;-54
2022/08/25 08:57:27;;;;;;;7.60;5.70;;;;;;;;;;5011753;28;20699;-54
2022/08/25 08:59:55;;;;;;;7.63;5.13;;;;;;;;;;4995709;28;20443;-54
2022/08/25 09:02:25;;;;;;;6.47;5.80;;;;;;;;;;5009083;28;20427;-54
2022/08/25 09:04:52;;;;;;;5.90;5.33;;;;;;;;;;5017352;28;20438;-54
2022/08/25 09:07:19;;;;;;;5.30;4.80;;;;;;;;;;5008854;28;20439;-54
2022/08/25 09:09:45;;;;;;;6.93;6.20;;;;;;;;;;5009026;28;20476;-53
2022/08/25 09:12:30;;;;;;;6.50;5.77;;;;;;;;;;5002989;28;20992;-54
2022/08/25 09:14:59;;;;;;;5.90;5.40;;;;;;;;;;5024688;28;20169;-55
2022/08/25 09:17:44;;;;;;;6.03;5.30;;;;;;;;;;5012689;28;21166;-54
2022/08/25 09:20:13;;;;;;;5.80;5.20;;;;;;;;;;5017231;28;20483;-54
2022/08/25 09:23:08;;;;;;;6.60;6.00;;;;;;;;;;5002322;28;20523;-54
2022/08/25 09:25:44;;;;;;;5.30;4.80;;;;;;;;;;5010155;28;20530;-54
2022/08/25 09:28:29;;;;;;;7.60;5.60;;;;;;;;;;4985289;28;21248;-54
2022/08/25 09:30:58;;;;;;;6.80;6.20;;;;;;;;;;5018723;28;20464;-54
2022/08/25 09:33:24;;;;;;;6.97;5.40;;;;;;;;;;4998763;28;20455;-54
2022/08/25 09:35:51;;;;;;;5.80;5.20;;;;;;;;;;5007757;28;20439;-54
2022/08/25 09:38:18;;;;;;;6.10;5.00;;;;;;;;;;5000691;28;20447;-54
2022/08/25 09:40:45;;;;;;;7.70;5.30;;;;;;;;;;5027335;28;20922;-53
2022/08/25 09:43:18;;;;;;;4.90;4.40;;;;;;;;;;5020047;28;20442;-52
2022/08/25 09:45:45;;;;;;;5.80;5.20;;;;;;;;;;5029703;28;20450;-54
2022/08/25 09:48:23;;;;;;;5.83;5.23;;;;;;;;;;5022887;28;20473;-53
2022/08/25 09:50:50;;;;;;;5.93;5.27;;;;;;;;;;5027570;28;20477;-53
2022/08/25 09:53:16;;;;;;;6.57;5.67;;;;;;;;;;5012669;28;20682;-53
2022/08/25 09:55:42;;;;;;;7.87;5.73;;;;;;;;;;5010600;28;21000;-53
2022/08/25 09:58:22;;;;;;;6.10;5.50;;;;;;;;;;4967712;28;20448;-54
2022/08/25 10:01:06;;;;;;;6.67;5.20;;;;;;;;;;5023968;28;21009;-54
2022/08/25 10:03:32;;;;;;;6.63;5.80;;;;;;;;;;5007566;28;20493;-55
2022/08/25 10:05:58;;;;;;;5.60;5.00;;;;;;;;;;5004742;28;20419;-56
2022/08/25 10:08:30;;;;;;;8.27;5.30;;;;;;;;;;5004494;28;20435;-55
2022/08/25 10:10:56;;;;;;;6.13;5.53;;;;;;;;;;5028003;28;20686;-53
2022/08/25 10:13:31;;;;;;;6.20;5.60;;;;;;;;;;5026472;28;20509;-53
2022/08/25 10:16:08;;;;;;;6.83;5.23;;;;;;;;;;5017141;28;20504;-52
2022/08/25 10:18:34;;;;;;;6.40;5.30;;;;;;;;;;5007252;28;20435;-53
2022/08/25 10:21:03;;;;;;;5.73;4.87;;;;;;;;;;5030616;28;20957;-54
2022/08/25 10:23:29;;;;;;;7.03;5.50;;;;;;;;;;5020647;28;20195;-53
2022/08/25 10:25:55;;;;;;;5.57;4.43;;;;;;;;;;5025984;28;20537;-54
2022/08/25 10:28:30;;;;;;;5.40;4.80;;;;;;;;;;4980999;28;20455;-53
2022/08/25 10:30:56;;;;;;;5.97;5.00;;;;;;;;;;5027175;28;20215;-54
2022/08/25 10:33:29;;;;;;;5.73;5.00;;;;;;;;;;5021415;28;20665;-54
2022/08/25 10:36:06;;;;;;;5.67;5.13;;;;;;;;;;5000792;28;20463;-53
2022/08/25 10:38:44;;;;;;;5.70;5.20;;;;;;;;;;5005942;28;20439;-54
2022/08/25 10:41:19;;;;;;;4.67;4.27;;;;;;;;;;5019230;28;20423;-54
2022/08/25 10:43:48;;;;;;;4.20;3.80;;;;;;;;;;5024700;28;21413;-54
2022/08/25 10:46:26;;;;;;;8.63;4.97;;;;;;;;;;5023434;28;20508;-53
2022/08/25 10:49:01;;;;;;;6.27;5.10;;;;;;;;;;5006657;28;20565;-54
2022/08/25 10:51:30;;;;;;;5.07;4.47;;;;;;;;;;5008229;28;20501;-53
2022/08/25 10:53:56;;;;;;;4.93;4.43;;;;;;;;;;5027155;28;20450;-53
2022/08/25 10:56:28;;;;;;;5.00;4.50;;;;;;;;;;5023420;28;20423;-52
2022/08/25 10:59:12;;;;;;;5.80;3.80;;;;;;;;;;5014531;28;20444;-53
2022/08/25 11:01:41;;;;;;;5.10;4.03;;;;;;;;;;4963084;28;20463;-53
2022/08/25 11:04:12;;;;;;;4.87;4.37;;;;;;;;;;5001660;28;20463;-52
2022/08/25 11:06:40;;;;;;;4.53;4.10;;;;;;;;;;5004701;28;20655;-53
2022/08/25 11:09:07;;;;;;;5.43;4.70;;;;;;;;;;5004460;28;20436;-53
2022/08/25 11:11:35;;;;;;;4.67;3.80;;;;;;;;;;4988667;28;23383;-53
2022/08/25 11:14:24;;;;;;;5.10;4.60;;;;;;;;;;5027324;28;20446;-53
2022/08/25 11:16:52;;;;;;;5.10;4.47;;;;;;;;;;5011181;28;20968;-53
2022/08/25 11:19:19;;;;;;;4.33;3.80;;;;;;;;;;5023227;28;21019;-53
2022/08/25 11:21:45;;;;;;;4.47;4.07;;;;;;;;;;5002473;28;20467;-53
2022/08/25 11:24:31;;;;;;;4.47;3.53;;;;;;;;;;5028080;28;20470;-53
2022/08/25 11:26:57;;;;;;;4.60;4.20;;;;;;;;;;5002788;28;20957;-53
2022/08/25 11:29:25;;;;;;;6.17;3.87;;;;;;;;;;5010919;28;20466;-53
2022/08/25 11:31:51;;;;;;;4.93;4.50;;;;;;;;;;5005229;28;20446;-54
2022/08/25 11:34:17;;;;;;;6.13;3.60;;;;;;;;;;5006733;28;20789;-54
2022/08/25 11:36:54;;;;;;;3.90;3.50;;;;;;;;;;4965460;28;20945;-54
2022/08/25 11:39:20;;;;;;;3.87;3.50;;;;;;;;;;5023106;28;20526;-54
2022/08/25 11:41:46;;;;;;;3.50;3.20;;;;;;;;;;5002838;28;21617;-54
2022/08/25 11:44:18;;;;;;;4.30;3.87;;;;;;;;;;5028092;28;20265;-54
2022/08/25 11:46:59;;;;;;;4.60;3.80;;;;;;;;;;5024145;28;20678;-53
2022/08/25 11:49:43;;;;;;;4.30;3.90;;;;;;;;;;5025662;28;20961;-53
2022/08/25 11:52:28;;;;;;;5.90;4.47;;;;;;;;;;4998993;28;20948;-53
2022/08/25 11:54:55;;;;;;;4.63;3.63;;;;;;;;;;5029292;28;20438;-54
2022/08/25 11:57:21;;;;;;;4.53;3.83;;;;;;;;;;5018332;28;20478;-53
2022/08/25 11:59:50;;;;;;;3.43;3.03;;;;;;;;;;5007525;28;20439;-53
2022/08/25 12:02:35;;;;;;;4.33;3.93;;;;;;;;;;5006490;28;20439;-54
2022/08/25 12:05:02;;;;;;;4.20;3.80;;;;;;;;;;5025777;28;20450;-54
2022/08/25 12:07:48;;;;;;;6.73;3.90;;;;;;;;;;4975431;28;20982;-53
2022/08/25 12:10:17;;;;;;;3.80;3.50;;;;;;;;;;5006573;28;20486;-54
2022/08/25 12:12:43;;;;;;;3.67;3.37;;;;;;;;;;5004851;28;20511;-53
2022/08/25 12:15:13;;;;;;;3.90;3.50;;;;;;;;;;5026972;28;20906;-53
2022/08/25 12:17:39;;;;;;;4.33;3.93;;;;;;;;;;5013454;28;20204;-54
2022/08/25 12:20:05;;;;;;;4.87;3.73;;;;;;;;;;5009807;28;20462;-54
2022/08/25 12:22:31;;;;;;;4.07;3.77;;;;;;;;;;5018433;28;20442;-53
2022/08/25 12:25:02;;;;;;;3.47;3.13;;;;;;;;;;5029438;28;20420;-54
2022/08/25 12:27:31;;;;;;;5.17;4.67;;;;;;;;;;4987472;28;20199;-54
2022/08/25 12:30:01;;;;;;;4.33;3.83;;;;;;;;;;5027971;28;20521;-53
2022/08/25 12:32:30;;;;;;;3.70;3.40;;;;;;;;;;4969764;28;21069;-53
2022/08/25 12:35:09;;;;;;;9.13;3.90;;;;;;;;;;5028408;28;21802;-53
2022/08/25 12:37:35;;;;;;;3.60;3.30;;;;;;;;;;4974260;28;20454;-53
2022/08/25 12:40:02;;;;;;;4.17;3.77;;;;;;;;;;5008401;28;20510;-53
2022/08/25 12:42:38;;;;;;;3.77;3.43;;;;;;;;;;5022525;28;20490;-54
2022/08/25 12:45:23;;;;;;;5.90;3.90;;;;;;;;;;5003217;28;20456;-54
2022/08/25 12:47:49;;;;;;;7.03;4.23;;;;;;;;;;5003107;28;20443;-54
2022/08/25 12:50:34;;;;;;;3.63;3.33;;;;;;;;;;5025886;28;20474;-53
2022/08/25 12:53:10;;;;;;;5.03;4.40;;;;;;;;;;5007231;28;21099;-53
2022/08/25 12:55:36;;;;;;;4.60;4.20;;;;;;;;;;5021152;28;20988;-53
2022/08/25 12:58:02;;;;;;;4.50;4.10;;;;;;;;;;5022052;28;20423;-53
2022/08/25 13:00:29;;;;;;;3.63;3.33;;;;;;;;;;5000980;28;20446;-53
2022/08/25 13:02:55;;;;;;;5.40;3.90;;;;;;;;;;5013908;28;20181;-53
2022/08/25 13:05:39;;;;;;;3.50;3.20;;;;;;;;;;5008555;28;21191;-54
2022/08/25 13:08:05;;;;;;;3.53;3.23;;;;;;;;;;5018862;28;20438;-54
2022/08/25 13:10:45;;;;;;;3.60;3.30;;;;;;;;;;5018679;28;20471;-54
2022/08/25 13:13:12;;;;;;;4.10;3.10;;;;;;;;;;4975031;28;20648;-53
2022/08/25 13:15:39;;;;;;;3.40;3.10;;;;;;;;;;5024578;28;20439;-53
2022/08/25 13:18:15;;;;;;;3.87;3.50;;;;;;;;;;5024232;28;20508;-53
2022/08/25 13:20:41;;;;;;;3.97;3.63;;;;;;;;;;5003512;28;20434;-54
2022/08/25 13:23:07;;;;;;;3.43;3.13;;;;;;;;;;4997140;28;20443;-53
2022/08/25 13:25:33;;;;;;;3.43;3.13;;;;;;;;;;5012915;28;20454;-52
2022/08/25 13:28:00;;;;;;;4.20;3.90;;;;;;;;;;4994035;28;20444;-53
2022/08/25 13:30:30;;;;;;;4.57;3.70;;;;;;;;;;5016069;28;20217;-53
2022/08/25 13:32:56;;;;;;;4.43;3.30;;;;;;;;;;5006353;28;20442;-53
2022/08/25 13:35:31;;;;;;;4.40;4.00;;;;;;;;;;5011159;28;20434;-53
2022/08/25 13:38:13;;;;;;;3.67;3.37;;;;;;;;;;5016118;28;20446;-53
2022/08/25 13:40:39;;;;;;;3.50;3.20;;;;;;;;;;5013503;28;20782;-54
2022/08/25 13:43:06;;;;;;;4.00;3.53;;;;;;;;;;4977238;28;20443;-52
2022/08/25 13:45:36;;;;;;;5.90;3.93;;;;;;;;;;5021469;28;20180;-54
2022/08/25 13:48:02;;;;;;;3.73;3.43;;;;;;;;;;5008603;28;20458;-54
2022/08/25 13:50:28;;;;;;;4.40;4.00;;;;;;;;;;5027316;28;20562;-54
2022/08/25 13:52:54;;;;;;;3.93;3.00;;;;;;;;;;5006761;28;20937;-54
2022/08/25 13:55:21;;;;;;;4.57;3.90;;;;;;;;;;5014533;28;20181;-53
2022/08/25 13:57:47;;;;;;;4.13;3.40;;;;;;;;;;5002637;28;20432;-54
2022/08/25 14:00:13;;;;;;;4.63;3.67;;;;;;;;;;5025325;28;20435;-53
2022/08/25 14:02:49;;;;;;;4.70;3.10;;;;;;;;;;4982880;28;20247;-53
2022/08/25 14:05:16;;;;;;;3.70;3.40;;;;;;;;;;5007494;28;20435;-53
2022/08/25 14:07:52;;;;;;;5.17;4.33;;;;;;;;;;5021663;28;20831;-53
2022/08/25 14:10:37;;;;;;;3.60;3.30;;;;;;;;;;5022214;28;20474;-54
2022/08/25 14:13:10;;;;;;;3.43;2.80;;;;;;;;;;5010835;28;20435;-53
2022/08/25 14:15:37;;;;;;;3.03;2.73;;;;;;;;;;5021710;28;20471;-55
2022/08/25 14:18:20;;;;;;;3.73;3.43;;;;;;;;;;4991193;28;20470;-55
2022/08/25 14:20:49;;;;;;;4.53;3.93;;;;;;;;;;5005332;28;20451;-54
2022/08/25 14:23:16;;;;;;;4.23;3.83;;;;;;;;;;5026974;28;20427;-54
2022/08/25 14:25:42;;;;;;;3.73;3.20;;;;;;;;;;5012087;28;20442;-55
2022/08/25 14:28:13;;;;;;;6.30;3.50;;;;;;;;;;5006167;28;20438;-55
2022/08/25 14:30:40;;;;;;;5.13;4.00;;;;;;;;;;5018311;28;20489;-54
2022/08/25 14:33:06;;;;;;;4.50;3.80;;;;;;;;;;4994375;28;20427;-54
2022/08/25 14:35:33;;;;;;;3.37;3.07;;;;;;;;;;5022932;28;20435;-55
2022/08/25 14:37:59;;;;;;;4.30;3.90;;;;;;;;;;5020534;28;20461;-54
2022/08/25 14:40:24;;;;;;;3.93;3.50;;;;;;;;;;5009025;28;20439;-55
2022/08/25 14:42:50;;;;;;;4.53;3.37;;;;;;;;;;5015592;28;20181;-55
2022/08/25 14:45:17;;;;;;;4.30;3.80;;;;;;;;;;5029263;28;20202;-54
2022/08/25 14:47:43;;;;;;;3.70;3.40;;;;;;;;;;5023212;28;20415;-54
2022/08/25 14:50:10;;;;;;;3.90;3.60;;;;;;;;;;5011563;28;20557;-54